Terminal Aerodrome Forecast
Issued by NWS

Home | Current Version | Previous Version | Text Only | Print | Product List | Glossary On
Versions: 1 2 3 4 5 6 7 8 9 10 11
000
FTUS42 KMLB 121720
TAFFPR
TAF
KFPR 121720Z 1218/1318 26011G19KT P6SM FEW040 BKN250
     FM130000 27008KT P6SM SKC
     FM130400 30008KT P6SM SKC=

USA.gov is the U.S. government's official web portal to all federal, state and local government web resources and services.